Time;durP1;ratioP1;P1;durP2;ratioP2;P2;SDS_P1;SDS_P2;PMS_P1;PMS_P2;Temp;Humidity;BMP_temperature;BMP_pressure;BME280_temperature;BME280_humidity;BME280_pressure;Samples;Min_cycle;Max_cycle;Signal;HPM_P1;HPM_P2
2023/04/23 00:01:05;;;;;;;;;;;;;;;;;;5072378;28;19955;-60
2023/04/23 00:03:32;;;;;;;;;;;;;;;;;;5059483;28;19995;-59
2023/04/23 00:05:58;;;;;;;;;;;;;;;;;;5053572;28;20316;-59
2023/04/23 00:08:24;;;;;;;;;;;;;;;;;;5061479;28;19948;-59
2023/04/23 00:10:50;;;;;;;;;;;;;;;;;;5050886;28;20280;-59
2023/04/23 00:13:16;;;;;;;;;;;;;;;;;;5050988;28;19931;-59
2023/04/23 00:15:42;;;;;;;;;;;;;;;;;;5052431;28;19940;-60
2023/04/23 00:18:08;;;;;;;;;;;;;;;;;;5059230;28;19923;-59
2023/04/23 00:20:35;;;;;;;;;;;;;;;;;;5051874;28;19917;-59
2023/04/23 00:23:01;;;;;;;;;;;;;;;;;;5050001;28;19932;-59
2023/04/23 00:25:27;;;;;;;;;;;;;;;;;;5050566;28;19921;-60
2023/04/23 00:27:53;;;;;;;;;;;;;;;;;;5036853;28;20007;-59
2023/04/23 00:30:19;;;;;;;;;;;;;;;;;;5051068;28;19923;-58
2023/04/23 00:32:45;;;;;;;;;;;;;;;;;;5050059;28;19917;-59
2023/04/23 00:35:11;;;;;;;;;;;;;;;;;;5053920;28;20000;-59
2023/04/23 00:37:37;;;;;;;;;;;;;;;;;;5055241;28;20130;-59
2023/04/23 00:40:03;;;;;;;;;;;;;;;;;;5039756;28;19959;-59
2023/04/23 00:42:29;;;;;;;;;;;;;;;;;;5056121;28;19920;-58
2023/04/23 00:44:55;;;;;;;;;;;;;;;;;;5055190;28;19944;-59
2023/04/23 00:47:21;;;;;;;;;;;;;;;;;;5056259;28;20046;-59
2023/04/23 00:49:49;;;;;;;;;;;;;;;;;;5068101;28;20436;-59
2023/04/23 00:52:15;;;;;;;;;;;;;;;;;;5075541;28;20375;-59
2023/04/23 00:54:41;;;;;;;;;;;;;;;;;;5062119;28;19912;-59
2023/04/23 00:57:07;;;;;;;;;;;;;;;;;;5075908;28;19967;-59
2023/04/23 00:59:33;;;;;;;;;;;;;;;;;;5075185;28;19944;-60
2023/04/23 01:01:59;;;;;;;;;;;;;;;;;;5074636;28;19913;-59
2023/04/23 01:04:25;;;;;;;;;;;;;;;;;;5055205;28;19944;-59
2023/04/23 01:06:50;;;;;;;;;;;;;;;;;;5055630;28;19952;-59
2023/04/23 01:09:17;;;;;;;;;;;;;;;;;;5041051;28;20010;-58
2023/04/23 01:11:43;;;;;;;;;;;;;;;;;;5053448;28;19920;-59
2023/04/23 01:14:08;;;;;;;;;;;;;;;;;;5061104;28;19947;-59
2023/04/23 01:16:35;;;;;;;;;;;;;;;;;;5055636;28;19951;-59
2023/04/23 01:19:01;;;;;;;;;;;;;;;;;;5052439;28;19920;-59
2023/04/23 01:21:27;;;;;;;;;;;;;;;;;;5050924;28;19912;-59
2023/04/23 01:23:52;;;;;;;;;;;;;;;;;;5064858;28;19921;-59
2023/04/23 01:26:18;;;;;;;;;;;;;;;;;;5054813;28;20389;-59
2023/04/23 01:28:45;;;;;;;;;;;;;;;;;;5059187;28;20015;-59
2023/04/23 01:31:13;;;;;;;;;;;;;;;;;;5053708;28;19920;-59
2023/04/23 01:33:39;;;;;;;;;;;;;;;;;;5054284;28;20404;-59
2023/04/23 01:36:05;;;;;;;;;;;;;;;;;;5054387;28;19935;-59
2023/04/23 01:38:31;;;;;;;;;;;;;;;;;;5053411;28;20003;-59
2023/04/23 01:40:56;;;;;;;;;;;;;;;;;;5060211;28;19920;-59
2023/04/23 01:43:22;;;;;;;;;;;;;;;;;;5051760;28;19924;-59
2023/04/23 01:45:48;;;;;;;;;;;;;;;;;;5054016;28;20019;-60
2023/04/23 01:48:14;;;;;;;;;;;;;;;;;;5058772;28;20003;-59
2023/04/23 01:50:40;;;;;;;;;;;;;;;;;;5053462;28;19921;-59
2023/04/23 01:53:06;;;;;;;;;;;;;;;;;;5052277;28;20379;-59
2023/04/23 01:55:32;;;;;;;;;;;;;;;;;;5053908;28;19920;-59
2023/04/23 01:57:58;;;;;;;;;;;;;;;;;;5053022;28;19912;-59
2023/04/23 02:00:24;;;;;;;;;;;;;;;;;;5052994;28;19920;-59
2023/04/23 02:02:52;;;;;;;;;;;;;;;;;;5053203;28;19948;-59
2023/04/23 02:05:18;;;;;;;;;;;;;;;;;;5054897;28;19916;-59
2023/04/23 02:07:44;;;;;;;;;;;;;;;;;;5055861;28;20416;-59
2023/04/23 02:10:10;;;;;;;;;;;;;;;;;;5052965;28;19995;-59
2023/04/23 02:12:36;;;;;;;;;;;;;;;;;;5053635;28;19975;-59
2023/04/23 02:15:02;;;;;;;;;;;;;;;;;;5052815;28;19928;-59
2023/04/23 02:17:28;;;;;;;;;;;;;;;;;;5053413;28;20429;-59
2023/04/23 02:19:54;;;;;;;;;;;;;;;;;;5053556;28;19961;-59
2023/04/23 02:22:21;;;;;;;;;;;;;;;;;;5052478;28;19913;-58
2023/04/23 02:24:47;;;;;;;;;;;;;;;;;;5056266;28;19920;-59
2023/04/23 02:27:13;;;;;;;;;;;;;;;;;;5053063;28;20659;-59
2023/04/23 02:29:40;;;;;;;;;;;;;;;;;;5052331;28;20025;-59
2023/04/23 02:32:05;;;;;;;;;;;;;;;;;;5051865;28;19967;-59
2023/04/23 02:34:31;;;;;;;;;;;;;;;;;;5049420;28;19975;-59
2023/04/23 02:36:57;;;;;;;;;;;;;;;;;;5052263;28;20035;-59
2023/04/23 02:39:23;;;;;;;;;;;;;;;;;;5063451;28;19917;-60
2023/04/23 02:41:49;;;;;;;;;;;;;;;;;;5066115;28;19955;-58
2023/04/23 02:44:15;;;;;;;;;;;;;;;;;;5071943;28;19916;-59
2023/04/23 02:46:41;;;;;;;;;;;;;;;;;;5074003;28;20368;-59
2023/04/23 02:49:07;;;;;;;;;;;;;;;;;;5069716;28;19920;-59
2023/04/23 02:51:33;;;;;;;;;;;;;;;;;;5058141;28;19916;-59
2023/04/23 02:53:59;;;;;;;;;;;;;;;;;;5061718;28;19964;-59
2023/04/23 02:56:25;;;;;;;;;;;;;;;;;;5054077;28;19923;-59
2023/04/23 02:58:51;;;;;;;;;;;;;;;;;;5057138;28;19909;-59
2023/04/23 03:01:17;;;;;;;;;;;;;;;;;;5052268;28;19913;-59
2023/04/23 03:03:43;;;;;;;;;;;;;;;;;;5053528;28;19909;-59
2023/04/23 03:06:09;;;;;;;;;;;;;;;;;;5049610;28;20442;-59
2023/04/23 03:08:35;;;;;;;;;;;;;;;;;;5062257;28;19916;-59
2023/04/23 03:11:01;;;;;;;;;;;;;;;;;;5052525;28;19912;-60
2023/04/23 03:13:27;;;;;;;;;;;;;;;;;;5053427;28;19927;-59
2023/04/23 03:15:53;;;;;;;;;;;;;;;;;;5066416;28;19947;-59
2023/04/23 03:18:19;;;;;;;;;;;;;;;;;;5073302;28;19908;-58
2023/04/23 03:20:45;;;;;;;;;;;;;;;;;;5056189;28;19971;-60
2023/04/23 03:23:11;;;;;;;;;;;;;;;;;;5053158;28;20463;-59
2023/04/23 03:25:37;;;;;;;;;;;;;;;;;;5053262;28;19936;-59
2023/04/23 03:28:03;;;;;;;;;;;;;;;;;;5058803;28;19944;-59
2023/04/23 03:30:28;;;;;;;;;;;;;;;;;;5068809;28;19985;-59
2023/04/23 03:32:55;;;;;;;;;;;;;;;;;;5070999;28;19988;-59
2023/04/23 03:35:21;;;;;;;;;;;;;;;;;;5060377;28;19970;-59
2023/04/23 03:37:47;;;;;;;;;;;;;;;;;;5049874;28;19916;-59
2023/04/23 03:40:13;;;;;;;;;;;;;;;;;;5047587;28;20330;-59
2023/04/23 03:42:39;;;;;;;;;;;;;;;;;;5052267;28;19944;-59
2023/04/23 03:45:05;;;;;;;;;;;;;;;;;;5053347;28;20346;-59
2023/04/23 03:47:30;;;;;;;;;;;;;;;;;;5056152;28;19912;-60
2023/04/23 03:49:56;;;;;;;;;;;;;;;;;;5054236;28;19967;-59
2023/04/23 03:52:22;;;;;;;;;;;;;;;;;;5055149;28;19912;-59
2023/04/23 03:54:48;;;;;;;;;;;;;;;;;;5053820;28;19912;-59
2023/04/23 03:57:15;;;;;;;;;;;;;;;;;;5052549;28;19912;-59
2023/04/23 03:59:41;;;;;;;;;;;;;;;;;;5052451;28;19948;-59
2023/04/23 04:02:06;;;;;;;;;;;;;;;;;;5057183;28;20379;-59
2023/04/23 04:04:32;;;;;;;;;;;;;;;;;;5034955;28;19923;-59
2023/04/23 04:07:01;;;;;;;;;;;;;;;;;;5049732;28;20457;-58
2023/04/23 04:09:27;;;;;;;;;;;;;;;;;;5049443;28;19917;-58
2023/04/23 04:11:53;;;;;;;;;;;;;;;;;;5050190;28;20454;-59
2023/04/23 04:14:19;;;;;;;;;;;;;;;;;;5051387;28;19909;-59
2023/04/23 04:16:45;;;;;;;;;;;;;;;;;;5051370;28;19955;-58
2023/04/23 04:19:11;;;;;;;;;;;;;;;;;;5051582;28;19964;-58
2023/04/23 04:21:37;;;;;;;;;;;;;;;;;;5050893;28;20434;-58
2023/04/23 04:24:03;;;;;;;;;;;;;;;;;;5049854;28;19969;-58
2023/04/23 04:26:31;;;;;;;;;;;;;;;;;;5050284;28;19913;-58
2023/04/23 04:28:57;;;;;;;;;;;;;;;;;;5051083;28;19913;-59
2023/04/23 04:31:24;;;;;;;;;;;;;;;;;;5050627;28;20000;-57
2023/04/23 04:33:50;;;;;;;;;;;;;;;;;;5051003;28;19916;-58
2023/04/23 04:36:17;;;;;;;;;;;;;;;;;;5053997;28;19916;-58
2023/04/23 04:38:42;;;;;;;;;;;;;;;;;;5062252;28;20395;-58
2023/04/23 04:41:10;;;;;;;;;;;;;;;;;;5056075;28;20016;-58
2023/04/23 04:43:36;;;;;;;;;;;;;;;;;;5053637;28;19916;-58
2023/04/23 04:46:02;;;;;;;;;;;;;;;;;;5065012;28;20356;-58
2023/04/23 04:48:28;;;;;;;;;;;;;;;;;;5054683;28;19920;-58
2023/04/23 04:50:54;;;;;;;;;;;;;;;;;;5050174;28;19960;-58
2023/04/23 04:53:20;;;;;;;;;;;;;;;;;;5049865;28;20335;-58
2023/04/23 04:55:46;;;;;;;;;;;;;;;;;;5048997;28;19920;-58
2023/04/23 04:58:12;;;;;;;;;;;;;;;;;;5050823;28;19960;-58
2023/04/23 05:00:38;;;;;;;;;;;;;;;;;;5046953;28;20329;-58
2023/04/23 05:03:04;;;;;;;;;;;;;;;;;;5050107;28;20000;-58
2023/04/23 05:05:30;;;;;;;;;;;;;;;;;;5048602;28;19912;-58
2023/04/23 05:08:01;;;;;;;;;;;;;;;;;;5049584;28;20018;-58
2023/04/23 05:10:27;;;;;;;;;;;;;;;;;;5050118;28;20134;-58
2023/04/23 05:12:53;;;;;;;;;;;;;;;;;;5049584;28;19927;-58
2023/04/23 05:15:19;;;;;;;;;;;;;;;;;;5051141;28;19913;-58
2023/04/23 05:17:45;;;;;;;;;;;;;;;;;;5049184;28;20366;-58
2023/04/23 05:20:11;;;;;;;;;;;;;;;;;;5031906;28;20009;-57
2023/04/23 05:22:37;;;;;;;;;;;;;;;;;;5055056;28;20684;-58
2023/04/23 05:25:03;;;;;;;;;;;;;;;;;;5053262;28;19977;-58
2023/04/23 05:27:29;;;;;;;;;;;;;;;;;;5054445;28;19940;-58
2023/04/23 05:29:55;;;;;;;;;;;;;;;;;;5052378;28;19968;-58
2023/04/23 05:32:20;;;;;;;;;;;;;;;;;;5053288;28;20012;-58
2023/04/23 05:34:46;;;;;;;;;;;;;;;;;;5057756;28;19955;-59
2023/04/23 05:37:12;;;;;;;;;;;;;;;;;;5059869;28;19917;-58
2023/04/23 05:39:38;;;;;;;;;;;;;;;;;;5069676;28;19912;-58
2023/04/23 05:42:04;;;;;;;;;;;;;;;;;;5058096;28;20011;-58
2023/04/23 05:44:30;;;;;;;;;;;;;;;;;;5062619;28;19967;-59
2023/04/23 05:46:56;;;;;;;;;;;;;;;;;;5038622;28;20342;-58
2023/04/23 05:49:22;;;;;;;;;;;;;;;;;;5047782;28;19921;-58
2023/04/23 05:51:48;;;;;;;;;;;;;;;;;;5053758;28;20006;-58
2023/04/23 05:54:14;;;;;;;;;;;;;;;;;;5053575;28;19913;-58
2023/04/23 05:56:39;;;;;;;;;;;;;;;;;;5054118;28;19940;-58
2023/04/23 05:59:05;;;;;;;;;;;;;;;;;;5053929;28;20399;-58
2023/04/23 06:01:31;;;;;;;;;;;;;;;;;;5052101;28;20166;-58
2023/04/23 06:03:57;;;;;;;;;;;;;;;;;;5052971;28;19909;-58
2023/04/23 06:06:23;;;;;;;;;;;;;;;;;;5053840;28;20372;-58
2023/04/23 06:08:49;;;;;;;;;;;;;;;;;;5054326;28;19947;-57
2023/04/23 06:11:15;;;;;;;;;;;;;;;;;;5053170;28;19912;-58
2023/04/23 06:13:41;;;;;;;;;;;;;;;;;;5050661;28;20085;-58
2023/04/23 06:16:07;;;;;;;;;;;;;;;;;;5051181;28;20008;-59
2023/04/23 06:18:33;;;;;;;;;;;;;;;;;;5053612;28;19957;-59
2023/04/23 06:21:03;;;;;;;;;;;;;;;;;;5052337;28;19960;-58
2023/04/23 06:23:29;;;;;;;;;;;;;;;;;;5051432;28;19912;-58
2023/04/23 06:25:55;;;;;;;;;;;;;;;;;;5047871;28;20454;-58
2023/04/23 06:28:21;;;;;;;;;;;;;;;;;;5052309;28;19971;-58
2023/04/23 06:30:47;;;;;;;;;;;;;;;;;;5051393;28;19921;-58
2023/04/23 06:33:13;;;;;;;;;;;;;;;;;;5051023;28;20381;-58
2023/04/23 06:35:39;;;;;;;;;;;;;;;;;;5050386;28;19913;-58
2023/04/23 06:38:05;;;;;;;;;;;;;;;;;;5053007;28;19909;-58
2023/04/23 06:40:31;;;;;;;;;;;;;;;;;;5053478;28;19917;-58
2023/04/23 06:42:57;;;;;;;;;;;;;;;;;;5049523;28;19917;-58
2023/04/23 06:45:23;;;;;;;;;;;;;;;;;;5051467;28;19913;-58
2023/04/23 06:47:49;;;;;;;;;;;;;;;;;;5052973;28;19940;-58
2023/04/23 06:50:15;;;;;;;;;;;;;;;;;;5047835;28;19924;-60
2023/04/23 06:52:41;;;;;;;;;;;;;;;;;;5051719;28;19998;-59
2023/04/23 06:55:07;;;;;;;;;;;;;;;;;;5050536;28;20600;-58
2023/04/23 06:57:33;;;;;;;;;;;;;;;;;;5055874;28;20357;-58
2023/04/23 06:59:59;;;;;;;;;;;;;;;;;;5063223;28;19913;-58
2023/04/23 07:02:25;;;;;;;;;;;;;;;;;;5047990;28;19935;-58
2023/04/23 07:04:51;;;;;;;;;;;;;;;;;;5049329;28;19967;-59
2023/04/23 07:07:16;;;;;;;;;;;;;;;;;;5044235;28;20397;-58
2023/04/23 07:09:42;;;;;;;;;;;;;;;;;;5042693;28;19924;-58
2023/04/23 07:12:09;;;;;;;;;;;;;;;;;;5049842;28;19931;-58
2023/04/23 07:14:34;;;;;;;;;;;;;;;;;;5052048;28;19913;-57
2023/04/23 07:17:00;;;;;;;;;;;;;;;;;;5050520;28;19944;-59
2023/04/23 07:19:26;;;;;;;;;;;;;;;;;;5051212;28;20261;-59
2023/04/23 07:21:52;;;;;;;;;;;;;;;;;;5044775;28;19913;-58
2023/04/23 07:24:18;;;;;;;;;;;;;;;;;;5047201;28;19970;-58
2023/04/23 07:26:44;;;;;;;;;;;;;;;;;;5054213;28;20311;-58
2023/04/23 07:29:10;;;;;;;;;;;;;;;;;;5054832;28;20015;-58
2023/04/23 07:31:36;;;;;;;;;;;;;;;;;;5051213;28;19944;-58
2023/04/23 07:34:02;;;;;;;;;;;;;;;;;;5049373;28;19917;-59
2023/04/23 07:36:28;;;;;;;;;;;;;;;;;;5049849;28;19952;-57
2023/04/23 07:38:54;;;;;;;;;;;;;;;;;;5045375;28;19921;-58
2023/04/23 07:41:20;;;;;;;;;;;;;;;;;;5045881;28;19909;-58
2023/04/23 07:43:46;;;;;;;;;;;;;;;;;;5050552;28;19990;-58
2023/04/23 07:46:11;;;;;;;;;;;;;;;;;;5049284;28;20281;-58
2023/04/23 07:48:37;;;;;;;;;;;;;;;;;;5049974;28;19917;-58
2023/04/23 07:51:05;;;;;;;;;;;;;;;;;;5050333;28;20000;-58
2023/04/23 07:53:31;;;;;;;;;;;;;;;;;;5047302;28;19948;-58
2023/04/23 07:55:57;;;;;;;;;;;;;;;;;;5046927;28;19968;-58
2023/04/23 07:58:22;;;;;;;;;;;;;;;;;;5047289;28;20026;-58
2023/04/23 08:00:48;;;;;;;;;;;;;;;;;;5051410;28;20368;-58
2023/04/23 08:03:14;;;;;;;;;;;;;;;;;;5045316;28;19917;-58
2023/04/23 08:05:40;;;;;;;;;;;;;;;;;;5050302;28;19920;-58
2023/04/23 08:08:07;;;;;;;;;;;;;;;;;;5046152;28;20300;-58
2023/04/23 08:10:33;;;;;;;;;;;;;;;;;;5050367;28;20369;-58
2023/04/23 08:12:58;;;;;;;;;;;;;;;;;;5048518;28;20028;-58
2023/04/23 08:15:24;;;;;;;;;;;;;;;;;;5048488;28;19935;-58
2023/04/23 08:17:50;;;;;;;;;;;;;;;;;;5048474;28;20375;-58
2023/04/23 08:20:16;;;;;;;;;;;;;;;;;;5049572;28;19917;-58
2023/04/23 08:22:42;;;;;;;;;;;;;;;;;;5050804;28;20011;-59
2023/04/23 08:25:08;;;;;;;;;;;;;;;;;;5050902;28;20343;-58
2023/04/23 08:27:34;;;;;;;;;;;;;;;;;;5045187;28;20026;-58
2023/04/23 08:30:00;;;;;;;;;;;;;;;;;;5047555;28;19958;-58
2023/04/23 08:32:26;;;;;;;;;;;;;;;;;;5048679;28;20011;-58
2023/04/23 08:34:52;;;;;;;;;;;;;;;;;;5046385;28;19921;-58
2023/04/23 08:37:18;;;;;;;;;;;;;;;;;;5049896;28;20390;-57
2023/04/23 08:39:44;;;;;;;;;;;;;;;;;;5049093;28;20062;-58
2023/04/23 08:42:10;;;;;;;;;;;;;;;;;;5050865;28;20014;-58
2023/04/23 08:44:36;;;;;;;;;;;;;;;;;;5048013;28;20450;-57
2023/04/23 08:47:02;;;;;;;;;;;;;;;;;;5047941;28;20007;-57
2023/04/23 08:49:28;;;;;;;;;;;;;;;;;;5044324;28;19917;-59
2023/04/23 08:51:54;;;;;;;;;;;;;;;;;;5048443;28;20262;-58
2023/04/23 08:54:20;;;;;;;;;;;;;;;;;;5048475;28;20019;-58
2023/04/23 08:56:46;;;;;;;;;;;;;;;;;;5047481;28;19991;-57
2023/04/23 08:59:12;;;;;;;;;;;;;;;;;;5051087;28;19917;-57
2023/04/23 09:01:38;;;;;;;;;;;;;;;;;;5051446;28;19913;-58
2023/04/23 09:04:04;;;;;;;;;;;;;;;;;;5049645;28;20536;-57
2023/04/23 09:06:32;;;;;;;;;;;;;;;;;;5050748;28;19919;-58
2023/04/23 09:08:59;;;;;;;;;;;;;;;;;;5049773;28;19922;-57
2023/04/23 09:11:25;;;;;;;;;;;;;;;;;;5052880;28;19948;-58
2023/04/23 09:13:51;;;;;;;;;;;;;;;;;;5053976;28;20368;-57
2023/04/23 09:16:17;;;;;;;;;;;;;;;;;;5052002;28;19921;-57
2023/04/23 09:18:43;;;;;;;;;;;;;;;;;;5048625;28;19939;-57
2023/04/23 09:21:08;;;;;;;;;;;;;;;;;;5045155;28;19964;-57
2023/04/23 09:23:37;;;;;;;;;;;;;;;;;;5041429;28;20001;-58
2023/04/23 09:26:03;;;;;;;;;;;;;;;;;;5054408;28;19913;-58
2023/04/23 09:28:29;;;;;;;;;;;;;;;;;;5052157;28;20070;-58
2023/04/23 09:30:55;;;;;;;;;;;;;;;;;;5053981;28;19913;-57
2023/04/23 09:33:20;;;;;;;;;;;;;;;;;;5052451;28;19959;-58
2023/04/23 09:35:46;;;;;;;;;;;;;;;;;;5048204;28;20336;-57
2023/04/23 09:38:12;;;;;;;;;;;;;;;;;;5045803;28;19917;-57
2023/04/23 09:40:38;;;;;;;;;;;;;;;;;;5045092;28;19936;-59
2023/04/23 09:43:06;;;;;;;;;;;;;;;;;;5048993;28;20011;-58
2023/04/23 09:45:34;;;;;;;;;;;;;;;;;;5052810;28;20347;-58
2023/04/23 09:48:00;;;;;;;;;;;;;;;;;;5051381;28;19913;-58
2023/04/23 09:50:25;;;;;;;;;;;;;;;;;;5052712;28;20474;-58
2023/04/23 09:52:51;;;;;;;;;;;;;;;;;;5050054;28;19974;-58
2023/04/23 09:55:17;;;;;;;;;;;;;;;;;;5042212;28;20320;-58
2023/04/23 09:57:43;;;;;;;;;;;;;;;;;;5047615;28;19955;-57
2023/04/23 10:00:09;;;;;;;;;;;;;;;;;;5051310;28;19984;-57
2023/04/23 10:02:36;;;;;;;;;;;;;;;;;;5045899;28;19913;-57
2023/04/23 10:05:02;;;;;;;;;;;;;;;;;;5048421;28;20380;-58
2023/04/23 10:07:28;;;;;;;;;;;;;;;;;;5050471;28;19994;-58
2023/04/23 10:09:54;;;;;;;;;;;;;;;;;;5043686;28;19917;-58
2023/04/23 10:12:20;;;;;;;;;;;;;;;;;;5048345;28;19994;-58
2023/04/23 10:14:48;;;;;;;;;;;;;;;;;;5050317;28;20450;-59
2023/04/23 10:17:14;;;;;;;;;;;;;;;;;;5046264;28;19913;-59
2023/04/23 10:19:41;;;;;;;;;;;;;;;;;;5045985;28;20102;-58
2023/04/23 10:22:07;;;;;;;;;;;;;;;;;;5051388;28;19909;-58
2023/04/23 10:24:33;;;;;;;;;;;;;;;;;;5044013;28;19948;-58
2023/04/23 10:26:59;;;;;;;;;;;;;;;;;;5051659;28;19957;-58
2023/04/23 10:29:25;;;;;;;;;;;;;;;;;;5031622;28;19921;-58
2023/04/23 10:31:51;;;;;;;;;;;;;;;;;;5051010;28;20373;-57
2023/04/23 10:34:17;;;;;;;;;;;;;;;;;;5052946;28;19952;-59
2023/04/23 10:36:43;;;;;;;;;;;;;;;;;;5048295;28;20032;-57
2023/04/23 10:39:09;;;;;;;;;;;;;;;;;;5042094;28;19923;-59
2023/04/23 10:41:36;;;;;;;;;;;;;;;;;;5050879;28;19920;-58
2023/04/23 10:44:02;;;;;;;;;;;;;;;;;;5050593;28;19917;-58
2023/04/23 10:46:28;;;;;;;;;;;;;;;;;;5051833;28;19947;-58
2023/04/23 10:48:56;;;;;;;;;;;;;;;;;;5042665;28;20278;-57
2023/04/23 10:51:22;;;;;;;;;;;;;;;;;;5052329;28;19916;-58
2023/04/23 10:53:48;;;;;;;;;;;;;;;;;;5051592;28;20346;-58
2023/04/23 10:56:13;;;;;;;;;;;;;;;;;;5046348;28;19920;-57
2023/04/23 10:58:39;;;;;;;;;;;;;;;;;;5049261;28;19917;-57
2023/04/23 11:01:05;;;;;;;;;;;;;;;;;;5049053;28;19948;-58
2023/04/23 11:03:31;;;;;;;;;;;;;;;;;;5044015;28;19913;-58
2023/04/23 11:05:57;;;;;;;;;;;;;;;;;;5045756;28;20505;-58
2023/04/23 11:08:23;;;;;;;;;;;;;;;;;;5047910;28;19913;-58
2023/04/23 11:10:49;;;;;;;;;;;;;;;;;;5047844;28;20304;-58
2023/04/23 11:13:15;;;;;;;;;;;;;;;;;;5041991;28;19968;-58
2023/04/23 11:15:41;;;;;;;;;;;;;;;;;;5048347;28;20438;-58
2023/04/23 11:18:07;;;;;;;;;;;;;;;;;;5050018;28;19913;-58
2023/04/23 11:20:32;;;;;;;;;;;;;;;;;;5045511;28;22300;-58
2023/04/23 11:22:58;;;;;;;;;;;;;;;;;;5046725;28;19916;-58
2023/04/23 11:25:25;;;;;;;;;;;;;;;;;;5047162;28;19955;-59
2023/04/23 11:27:51;;;;;;;;;;;;;;;;;;5043431;28;19912;-58
2023/04/23 11:30:17;;;;;;;;;;;;;;;;;;5048702;28;20336;-57
2023/04/23 11:32:43;;;;;;;;;;;;;;;;;;5044582;28;20365;-58
2023/04/23 11:35:09;;;;;;;;;;;;;;;;;;5049580;28;19912;-58
2023/04/23 11:37:35;;;;;;;;;;;;;;;;;;5045955;28;19967;-57
2023/04/23 11:40:02;;;;;;;;;;;;;;;;;;5044271;28;20380;-58
2023/04/23 11:42:28;;;;;;;;;;;;;;;;;;5044746;28;19920;-58
2023/04/23 11:44:54;;;;;;;;;;;;;;;;;;5045087;28;20269;-59
2023/04/23 11:47:20;;;;;;;;;;;;;;;;;;5048312;28;19920;-58
2023/04/23 11:49:46;;;;;;;;;;;;;;;;;;5046575;28;20381;-59
2023/04/23 11:52:12;;;;;;;;;;;;;;;;;;5047239;28;19982;-57
2023/04/23 11:54:38;;;;;;;;;;;;;;;;;;5035842;28;19964;-58
2023/04/23 11:57:05;;;;;;;;;;;;;;;;;;5051671;28;19913;-58
2023/04/23 11:59:31;;;;;;;;;;;;;;;;;;5051847;28;20399;-58
2023/04/23 12:01:57;;;;;;;;;;;;;;;;;;5048752;28;19952;-56
2023/04/23 12:04:23;;;;;;;;;;;;;;;;;;5038536;28;19927;-57
2023/04/23 12:06:49;;;;;;;;;;;;;;;;;;5038470;28;20009;-58
2023/04/23 12:09:15;;;;;;;;;;;;;;;;;;5050469;28;19913;-59
2023/04/23 12:11:41;;;;;;;;;;;;;;;;;;5048340;28;19975;-56
2023/04/23 12:14:09;;;;;;;;;;;;;;;;;;5044734;28;20030;-56
2023/04/23 12:16:35;;;;;;;;;;;;;;;;;;5042118;28;20342;-56
2023/04/23 12:19:01;;;;;;;;;;;;;;;;;;5046364;28;19913;-56
2023/04/23 12:21:28;;;;;;;;;;;;;;;;;;5049428;28;20340;-56
2023/04/23 12:23:54;;;;;;;;;;;;;;;;;;5049698;28;19923;-56
2023/04/23 12:26:20;;;;;;;;;;;;;;;;;;5044029;28;19916;-57
2023/04/23 12:28:46;;;;;;;;;;;;;;;;;;5041869;28;20373;-56
2023/04/23 12:31:12;;;;;;;;;;;;;;;;;;5050020;28;19920;-57
2023/04/23 12:33:38;;;;;;;;;;;;;;;;;;5045345;28;19951;-56
2023/04/23 12:36:04;;;;;;;;;;;;;;;;;;5048064;28;20288;-57
2023/04/23 12:38:30;;;;;;;;;;;;;;;;;;5056494;28;19931;-56
2023/04/23 12:40:56;;;;;;;;;;;;;;;;;;5049250;28;19944;-58
2023/04/23 12:43:22;;;;;;;;;;;;;;;;;;5047974;28;19983;-56
2023/04/23 12:45:48;;;;;;;;;;;;;;;;;;5044915;28;19917;-56
2023/04/23 12:48:14;;;;;;;;;;;;;;;;;;5046873;28;19925;-56
2023/04/23 12:50:40;;;;;;;;;;;;;;;;;;5050113;28;20064;-56
2023/04/23 12:53:05;;;;;;;;;;;;;;;;;;5043984;28;20384;-57
2023/04/23 12:55:31;;;;;;;;;;;;;;;;;;5048432;28;19912;-56
2023/04/23 12:57:57;;;;;;;;;;;;;;;;;;5049634;28;20288;-56
2023/04/23 13:00:23;;;;;;;;;;;;;;;;;;5046665;28;19956;-56
2023/04/23 13:02:49;;;;;;;;;;;;;;;;;;5047309;28;19935;-59
2023/04/23 13:05:15;;;;;;;;;;;;;;;;;;5039105;28;20004;-59
2023/04/23 13:07:42;;;;;;;;;;;;;;;;;;5048824;28;20007;-59
2023/04/23 13:10:08;;;;;;;;;;;;;;;;;;5044457;28;20357;-59
2023/04/23 13:12:34;;;;;;;;;;;;;;;;;;5043843;28;19931;-59
2023/04/23 13:15:00;;;;;;;;;;;;;;;;;;5043232;28;20056;-59
2023/04/23 13:17:26;;;;;;;;;;;;;;;;;;5049136;28;19959;-59
2023/04/23 13:19:52;;;;;;;;;;;;;;;;;;5045782;28;20368;-59
2023/04/23 13:22:18;;;;;;;;;;;;;;;;;;5042145;28;19963;-59
2023/04/23 13:24:44;;;;;;;;;;;;;;;;;;5041153;28;19948;-59
2023/04/23 13:27:10;;;;;;;;;;;;;;;;;;5047131;28;19948;-59
2023/04/23 13:29:36;;;;;;;;;;;;;;;;;;5045218;28;19923;-59
2023/04/23 13:32:01;;;;;;;;;;;;;;;;;;5040845;28;19956;-59
2023/04/23 13:34:27;;;;;;;;;;;;;;;;;;5041226;28;20019;-59
2023/04/23 13:36:53;;;;;;;;;;;;;;;;;;5042747;28;19961;-59
2023/04/23 13:39:20;;;;;;;;;;;;;;;;;;5039409;28;19913;-59
2023/04/23 13:41:46;;;;;;;;;;;;;;;;;;5049429;28;19917;-59
2023/04/23 13:44:12;;;;;;;;;;;;;;;;;;5050882;28;19975;-59
2023/04/23 13:46:39;;;;;;;;;;;;;;;;;;5049574;28;19920;-59
2023/04/23 13:49:04;;;;;;;;;;;;;;;;;;5048391;28;19936;-58
2023/04/23 13:51:30;;;;;;;;;;;;;;;;;;5047650;28;19956;-59
2023/04/23 13:53:58;;;;;;;;;;;;;;;;;;5042139;28;19967;-59
2023/04/23 13:56:23;;;;;;;;;;;;;;;;;;5048783;28;19913;-59
2023/04/23 13:58:51;;;;;;;;;;;;;;;;;;5048714;28;20737;-59
2023/04/23 14:01:17;;;;;;;;;;;;;;;;;;5042562;28;20368;-59
2023/04/23 14:03:43;;;;;;;;;;;;;;;;;;5051831;28;19923;-59
2023/04/23 14:06:09;;;;;;;;;;;;;;;;;;5050459;28;19913;-59
2023/04/23 14:08:35;;;;;;;;;;;;;;;;;;5051645;28;19956;-59
2023/04/23 14:11:01;;;;;;;;;;;;;;;;;;5047112;28;19921;-59
2023/04/23 14:13:27;;;;;;;;;;;;;;;;;;5053281;28;19971;-59
2023/04/23 14:15:53;;;;;;;;;;;;;;;;;;5052080;28;20005;-59
2023/04/23 14:18:19;;;;;;;;;;;;;;;;;;5045563;28;20381;-59
2023/04/23 14:20:45;;;;;;;;;;;;;;;;;;5045657;28;19924;-59
2023/04/23 14:23:11;;;;;;;;;;;;;;;;;;5054343;28;20292;-59
2023/04/23 14:25:37;;;;;;;;;;;;;;;;;;5042924;28;19956;-59
2023/04/23 14:28:03;;;;;;;;;;;;;;;;;;5051141;28;19923;-59
2023/04/23 14:30:30;;;;;;;;;;;;;;;;;;5047798;28;19916;-59
2023/04/23 14:32:56;;;;;;;;;;;;;;;;;;5051382;28;19913;-59
2023/04/23 14:35:22;;;;;;;;;;;;;;;;;;5048386;28;20407;-59
2023/04/23 14:37:48;;;;;;;;;;;;;;;;;;5042887;28;19921;-59
2023/04/23 14:40:18;;;;;;;;;;;;;;;;;;5044527;28;19912;-59
2023/04/23 14:42:44;;;;;;;;;;;;;;;;;;5042385;28;19952;-59
2023/04/23 14:45:10;;;;;;;;;;;;;;;;;;5045468;28;19917;-59
2023/04/23 14:47:36;;;;;;;;;;;;;;;;;;5049852;28;19920;-59
2023/04/23 14:50:02;;;;;;;;;;;;;;;;;;5049319;28;19956;-59
2023/04/23 14:52:28;;;;;;;;;;;;;;;;;;5051658;28;20003;-59
2023/04/23 14:54:54;;;;;;;;;;;;;;;;;;5052108;28;19915;-59
2023/04/23 14:57:20;;;;;;;;;;;;;;;;;;5050686;28;20251;-59
2023/04/23 14:59:46;;;;;;;;;;;;;;;;;;5048688;28;20005;-59
2023/04/23 15:02:12;;;;;;;;;;;;;;;;;;5050728;28;19913;-59
2023/04/23 15:04:38;;;;;;;;;;;;;;;;;;5050413;28;19963;-59
2023/04/23 15:07:04;;;;;;;;;;;;;;;;;;5047078;28;19912;-59
2023/04/23 15:09:30;;;;;;;;;;;;;;;;;;5050075;28;19975;-59
2023/04/23 15:11:56;;;;;;;;;;;;;;;;;;5048071;28;19960;-59
2023/04/23 15:14:22;;;;;;;;;;;;;;;;;;5047406;28;19930;-59
2023/04/23 15:16:48;;;;;;;;;;;;;;;;;;5053589;28;20003;-59
2023/04/23 15:19:16;;;;;;;;;;;;;;;;;;5047723;28;19952;-59
2023/04/23 15:21:42;;;;;;;;;;;;;;;;;;5045597;28;20316;-59
2023/04/23 15:24:08;;;;;;;;;;;;;;;;;;5041743;28;19971;-59
2023/04/23 15:26:34;;;;;;;;;;;;;;;;;;5039741;28;19952;-59
2023/04/23 15:29:00;;;;;;;;;;;;;;;;;;5040716;28;20287;-59
2023/04/23 15:31:26;;;;;;;;;;;;;;;;;;5041957;28;20412;-59
2023/04/23 15:33:52;;;;;;;;;;;;;;;;;;5043139;28;20015;-59
2023/04/23 15:36:17;;;;;;;;;;;;;;;;;;5048991;28;20376;-59
2023/04/23 15:38:43;;;;;;;;;;;;;;;;;;5045423;28;19959;-60
2023/04/23 15:41:09;;;;;;;;;;;;;;;;;;5047037;28;19917;-59
2023/04/23 15:43:35;;;;;;;;;;;;;;;;;;5047904;28;19912;-59
2023/04/23 15:46:01;;;;;;;;;;;;;;;;;;5032794;28;19920;-59
2023/04/23 15:48:27;;;;;;;;;;;;;;;;;;5042819;28;19975;-62
2023/04/23 15:50:53;;;;;;;;;;;;;;;;;;5045397;28;20407;-62
2023/04/23 15:53:21;;;;;;;;;;;;;;;;;;5043988;28;20416;-60
2023/04/23 15:55:47;;;;;;;;;;;;;;;;;;5038241;28;19916;-62
2023/04/23 15:58:13;;;;;;;;;;;;;;;;;;5048261;28;19931;-61
2023/04/23 16:00:39;;;;;;;;;;;;;;;;;;5045796;28;19913;-62
2023/04/23 16:03:06;;;;;;;;;;;;;;;;;;5042198;28;19913;-62
2023/04/23 16:05:32;;;;;;;;;;;;;;;;;;5041588;28;19927;-61
2023/04/23 16:07:58;;;;;;;;;;;;;;;;;;5040215;28;20003;-60
2023/04/23 16:10:25;;;;;;;;;;;;;;;;;;5039758;28;19916;-61
2023/04/23 16:12:53;;;;;;;;;;;;;;;;;;5045858;28;20003;-61
2023/04/23 16:15:19;;;;;;;;;;;;;;;;;;5040298;28;19920;-61
2023/04/23 16:17:45;;;;;;;;;;;;;;;;;;5036408;28;19956;-61
2023/04/23 16:20:11;;;;;;;;;;;;;;;;;;5042070;28;19921;-61
2023/04/23 16:22:37;;;;;;;;;;;;;;;;;;5044751;28;19967;-61
2023/04/23 16:25:03;;;;;;;;;;;;;;;;;;5050260;28;19912;-61
2023/04/23 16:27:29;;;;;;;;;;;;;;;;;;5048939;28;19971;-61
2023/04/23 16:29:55;;;;;;;;;;;;;;;;;;5044375;28;20250;-61
2023/04/23 16:32:21;;;;;;;;;;;;;;;;;;5045907;28;20400;-61
2023/04/23 16:34:47;;;;;;;;;;;;;;;;;;5047498;28;19959;-61
2023/04/23 16:37:14;;;;;;;;;;;;;;;;;;5038002;28;19923;-61